aviador You're here:

KFLD Decoded Metar

FOND DU LAC in WI, USA
Report Time2017-05-23 14:19:00
UTC Time2017-05-23 14:35:18
Flight Rules vfr VFR
Wind170° at 04 kt
W.Decomp.*RWY 18: 4.0 kt HW 0.4 kt LCW
RWY 09: 0.4 kt HW 4.0 kt RCW
W.Rank170° ranks 7
Current wind is below 170° avg. (7.3)
Visibility9999 m
Phenomena:N/A
Clouds:Few 009 Hf
Few 014 Hf
Overcast 031 Hf
Expected CloudBase > 1,600 ft AGL from Temp-Dew spread
Ceiling3,100 ft
Temp15°C (ISA +2)
Dew Point11°C (77% RH)
AAT13.9°C
QNH1008 hPa
Density Alt1,319 ft
Elevation787 ft
Report Wrong Elevation
Raw Report
KFLD 231419Z AUTO 17004KT 10SM FEW009 FEW014 OVC031 15/11 A2977
RMK AO2 T01500111=

Extra information for KFLD:More info

Metar Taf Metar & Taf Last 4 Metars F.Rules Stats Wind Profile Meteogram Temp Stats Airport Information Weather charts Add Link Nearby VenuesMetar ALERT Operation Metar Decoded Social comments

AIRNAV info for KFLD